Time;durP1;ratioP1;P1;durP2;ratioP2;P2;SDS_P1;SDS_P2;PMS_P1;PMS_P2;Temp;Humidity;BMP_temperature;BMP_pressure;BME280_temperature;BME280_humidity;BME280_pressure;Samples;Min_cycle;Max_cycle;Signal;HPM_P1;HPM_P2
2023/08/28 00:00:49;;;;;;;0.20;0.20;;;13.30;99.90;;;;;;5043976;28;20071;-70
2023/08/28 00:03:15;;;;;;;0.35;0.20;;;13.30;99.90;;;;;;5048538;28;20032;-70
2023/08/28 00:05:41;;;;;;;1.33;0.63;;;13.30;99.90;;;;;;5030178;28;20038;-69
2023/08/28 00:08:07;;;;;;;0.20;0.20;;;13.30;99.90;;;;;;5030882;28;20022;-79
2023/08/28 00:10:32;;;;;;;0.10;0.10;;;13.30;99.90;;;;;;5031847;28;20625;-69
2023/08/28 00:12:58;;;;;;;2.37;0.93;;;13.30;99.90;;;;;;5030283;28;20053;-70
2023/08/28 00:15:24;;;;;;;0.00;0.00;;;13.30;99.90;;;;;;5033018;28;20108;-69
2023/08/28 00:17:50;;;;;;;0.53;0.30;;;13.30;99.90;;;;;;5032288;28;20025;-69
2023/08/28 00:20:16;;;;;;;0.30;0.30;;;13.20;99.90;;;;;;5034462;28;20029;-69
2023/08/28 00:22:42;;;;;;;0.10;0.10;;;13.20;99.90;;;;;;5029853;28;20038;-70
2023/08/28 00:25:08;;;;;;;0.17;0.17;;;13.20;99.90;;;;;;5032833;28;20033;-71
2023/08/28 00:27:34;;;;;;;0.22;0.22;;;13.20;99.90;;;;;;5032855;28;20025;-70
2023/08/28 00:30:01;;;;;;;0.83;0.43;;;13.20;99.90;;;;;;5029905;28;20506;-70
2023/08/28 00:32:26;;;;;;;0.60;0.47;;;13.20;99.90;;;;;;5034308;28;20274;-70
2023/08/28 00:34:53;;;;;;;0.93;0.87;;;13.30;99.90;;;;;;5035330;28;20040;-80
2023/08/28 00:37:19;;;;;;;0.13;0.13;;;13.30;99.90;;;;;;5033675;28;20391;-70
2023/08/28 00:39:45;;;;;;;0.20;0.20;;;13.30;99.90;;;;;;5051930;28;20321;-70
2023/08/28 00:42:11;;;;;;;0.50;0.50;;;13.30;99.90;;;;;;5043474;28;20105;-74
2023/08/28 00:44:37;;;;;;;0.25;0.25;;;13.30;99.90;;;;;;5032052;28;20343;-69
2023/08/28 00:47:05;;;;;;;0.53;0.47;;;13.30;99.90;;;;;;5026345;28;20025;-69
2023/08/28 00:49:32;;;;;;;0.32;0.30;;;13.30;99.90;;;;;;5028674;28;20029;-69
2023/08/28 00:51:59;;;;;;;0.15;0.15;;;13.30;99.90;;;;;;5028070;28;20123;-70
2023/08/28 00:54:26;;;;;;;1.17;0.47;;;13.20;99.90;;;;;;5027192;28;20103;-69
2023/08/28 00:56:54;;;;;;;0.30;0.30;;;13.20;99.90;;;;;;5022627;28;20028;-69
2023/08/28 00:59:20;;;;;;;2.05;0.43;;;13.20;99.90;;;;;;5022593;28;20029;-69
2023/08/28 01:01:46;;;;;;;0.28;0.28;;;13.30;99.90;;;;;;5038864;28;20108;-69
2023/08/28 01:04:11;;;;;;;0.20;0.20;;;13.40;99.90;;;;;;5036760;28;20152;-69
2023/08/28 01:06:50;;;;;;;0.10;0.10;;;13.40;99.90;;;;;;5029400;28;20033;-69
2023/08/28 01:09:20;;;;;;;0.40;0.40;;;13.40;99.90;;;;;;5040125;28;20044;-69
2023/08/28 01:12:07;;;;;;;0.30;0.30;;;13.40;99.90;;;;;;5029172;28;20029;-69
2023/08/28 01:14:42;;;;;;;0.30;0.30;;;13.40;99.90;;;;;;5033983;28;20022;-69
2023/08/28 01:17:12;;;;;;;2.08;0.63;;;13.40;99.90;;;;;;5050105;28;20027;-70
2023/08/28 01:19:42;;;;;;;0.20;0.20;;;13.50;99.90;;;;;;5052850;28;20025;-69
2023/08/28 01:22:21;;;;;;;0.25;0.25;;;13.50;99.90;;;;;;5042799;28;20324;-69
2023/08/28 01:24:51;;;;;;;0.15;0.15;;;13.60;99.90;;;;;;5044591;28;20025;-69
2023/08/28 01:27:21;;;;;;;0.20;0.20;;;13.60;99.90;;;;;;5033770;28;20374;-69
2023/08/28 01:30:05;;;;;;;0.32;0.32;;;13.60;99.90;;;;;;5024384;28;20013;-68
2023/08/28 01:32:31;;;;;;;1.17;0.50;;;13.60;99.90;;;;;;5026868;28;20432;-69
2023/08/28 01:34:57;;;;;;;0.77;0.77;;;13.50;99.90;;;;;;5034046;28;20377;-79
2023/08/28 01:37:27;;;;;;;2.45;0.77;;;13.40;99.90;;;;;;5033102;28;20506;-69
2023/08/28 01:39:57;;;;;;;0.30;0.30;;;13.40;99.90;;;;;;5034603;28;20025;-79
2023/08/28 01:42:24;;;;;;;0.30;0.30;;;13.40;99.90;;;;;;5034149;28;20057;-78
2023/08/28 01:44:54;;;;;;;0.98;0.52;;;13.40;99.90;;;;;;5032797;28;20064;-69
2023/08/28 01:47:22;;;;;;;0.10;0.10;;;13.40;99.90;;;;;;5042266;28;20036;-69
2023/08/28 01:49:51;;;;;;;0.20;0.20;;;13.40;99.90;;;;;;5028310;28;20022;-70
2023/08/28 01:52:17;;;;;;;0.40;0.40;;;13.40;99.90;;;;;;5028407;28;20030;-69
2023/08/28 01:54:43;;;;;;;0.88;0.88;;;13.40;99.90;;;;;;5020030;28;20471;-69
2023/08/28 01:57:09;;;;;;;0.35;0.30;;;13.40;99.90;;;;;;5034430;28;20069;-69
2023/08/28 01:59:35;;;;;;;1.20;0.43;;;13.40;99.90;;;;;;5033030;28;20294;-69
2023/08/28 02:02:01;;;;;;;1.80;0.47;;;13.40;99.90;;;;;;5026208;28;20488;-69
2023/08/28 02:04:27;;;;;;;0.88;0.30;;;13.40;99.90;;;;;;5021011;28;20609;-69
2023/08/28 02:06:52;;;;;;;0.83;0.73;;;13.30;99.90;;;;;;5036723;28;20053;-77
2023/08/28 02:09:18;;;;;;;0.20;0.20;;;13.30;99.90;;;;;;5032263;28;20049;-69
2023/08/28 02:11:45;;;;;;;0.10;0.10;;;13.20;99.90;;;;;;5036885;28;20021;-69
2023/08/28 02:14:10;;;;;;;0.52;0.52;;;13.20;99.90;;;;;;5033722;28;20279;-69
2023/08/28 02:16:38;;;;;;;0.33;0.33;;;13.20;99.90;;;;;;5026664;28;20082;-77
2023/08/28 02:19:05;;;;;;;0.75;0.70;;;13.20;99.90;;;;;;5029444;28;20060;-69
2023/08/28 02:21:31;;;;;;;0.47;0.47;;;13.20;99.90;;;;;;5036039;28;20428;-69
2023/08/28 02:23:56;;;;;;;0.43;0.43;;;13.30;99.90;;;;;;5035275;28;20045;-79
2023/08/28 02:26:22;;;;;;;2.10;0.67;;;13.30;99.90;;;;;;5023724;28;20367;-69
2023/08/28 02:28:48;;;;;;;0.67;0.67;;;13.30;99.90;;;;;;5028752;28;20029;-69
2023/08/28 02:31:14;;;;;;;0.73;0.73;;;13.30;99.90;;;;;;5035284;28;20033;-69
2023/08/28 02:33:40;;;;;;;0.27;0.27;;;13.30;99.90;;;;;;5027341;28;20041;-78
2023/08/28 02:36:05;;;;;;;0.40;0.40;;;13.30;99.90;;;;;;5035652;28;20029;-69
2023/08/28 02:38:31;;;;;;;0.60;0.50;;;13.30;99.90;;;;;;5035168;28;20439;-69
2023/08/28 02:41:07;;;;;;;0.63;0.47;;;13.30;99.90;;;;;;5037200;28;20037;-69
2023/08/28 02:43:34;;;;;;;1.50;0.32;;;13.20;99.90;;;;;;5036117;28;20037;-69
2023/08/28 02:46:00;;;;;;;0.20;0.20;;;13.20;99.90;;;;;;5019056;28;20113;-69
2023/08/28 02:48:26;;;;;;;0.30;0.30;;;13.20;99.90;;;;;;5028087;28;20140;-69
2023/08/28 02:50:52;;;;;;;17.57;0.50;;;13.20;99.90;;;;;;5031907;28;20117;-69
2023/08/28 02:53:18;;;;;;;0.57;0.30;;;13.20;99.90;;;;;;5020516;28;20034;-69
2023/08/28 02:56:29;;;;;;;0.13;0.13;;;13.10;99.90;;;;;;5022135;28;20069;-68
2023/08/28 02:58:56;;;;;;;0.45;0.45;;;13.00;99.90;;;;;;5048832;28;20044;-68
2023/08/28 03:01:22;;;;;;;0.30;0.20;;;13.00;99.90;;;;;;5054151;28;20036;-68
2023/08/28 03:03:48;;;;;;;0.25;0.25;;;12.80;99.90;;;;;;5053120;28;20074;-69
2023/08/28 03:06:14;;;;;;;0.30;0.30;;;12.80;99.90;;;;;;5051136;28;20104;-69
2023/08/28 03:08:40;;;;;;;0.73;0.40;;;12.80;99.90;;;;;;5053447;28;20437;-69
2023/08/28 03:11:06;;;;;;;0.17;0.17;;;12.70;99.90;;;;;;5052236;28;20032;-78
2023/08/28 03:13:32;;;;;;;0.30;0.30;;;12.70;99.90;;;;;;5053532;28;20463;-69
2023/08/28 03:15:59;;;;;;;0.00;0.00;;;12.50;99.90;;;;;;5035374;28;20082;-71
2023/08/28 03:18:25;;;;;;;0.25;0.20;;;12.50;99.90;;;;;;5033658;28;20087;-68
2023/08/28 03:20:50;;;;;;;0.10;0.10;;;12.40;99.90;;;;;;5053077;28;20124;-69
2023/08/28 03:23:17;;;;;;;0.70;0.70;;;12.40;99.90;;;;;;5052423;28;20115;-69
2023/08/28 03:25:43;;;;;;;;;;;12.40;99.90;;;;;;5044330;28;20104;-68
2023/08/28 03:28:09;;;;;;;0.10;0.10;;;12.30;99.90;;;;;;5051854;28;19913;-75
2023/08/28 03:30:35;;;;;;;0.82;0.43;;;12.30;99.90;;;;;;5043433;28;20120;-68
2023/08/28 03:33:01;;;;;;;0.20;0.20;;;12.30;99.90;;;;;;5044597;28;20033;-69
2023/08/28 03:35:27;;;;;;;0.30;0.30;;;12.20;99.90;;;;;;5046002;28;20113;-68
2023/08/28 03:37:52;;;;;;;0.00;0.00;;;12.30;99.90;;;;;;5035960;28;20405;-69
2023/08/28 03:40:18;;;;;;;0.30;0.20;;;12.20;99.90;;;;;;5035239;28;20021;-69
2023/08/28 03:42:44;;;;;;;0.00;0.00;;;12.20;99.90;;;;;;5035701;28;20315;-68
2023/08/28 03:45:10;;;;;;;0.17;0.17;;;12.20;99.90;;;;;;5033510;28;20052;-68
2023/08/28 03:47:36;;;;;;;0.10;0.10;;;12.10;99.90;;;;;;5035389;28;20029;-68
2023/08/28 03:50:02;;;;;;;0.40;0.40;;;12.10;99.90;;;;;;5035930;28;20017;-68
2023/08/28 03:52:28;;;;;;;0.10;0.10;;;12.10;99.90;;;;;;5046835;28;20038;-68
2023/08/28 03:54:53;;;;;;;0.43;0.43;;;12.10;99.90;;;;;;5021735;28;20413;-68
2023/08/28 03:57:20;;;;;;;0.53;0.53;;;12.20;99.90;;;;;;5031261;28;20032;-69
2023/08/28 03:59:46;;;;;;;1.02;0.88;;;12.20;99.90;;;;;;5035449;28;20029;-69
2023/08/28 04:02:12;;;;;;;1.08;0.73;;;12.20;99.90;;;;;;5032644;28;20030;-69
2023/08/28 04:04:37;;;;;;;0.20;0.20;;;12.30;99.90;;;;;;5035090;28;20033;-75
2023/08/28 04:07:03;;;;;;;1.87;1.03;;;12.30;99.90;;;;;;5035554;28;20021;-68
2023/08/28 04:09:30;;;;;;;0.20;0.20;;;12.40;99.90;;;;;;5035388;28;20411;-68
2023/08/28 04:11:56;;;;;;;0.22;0.22;;;12.50;99.90;;;;;;5033079;28;20034;-68
2023/08/28 04:14:22;;;;;;;1.13;0.88;;;12.60;99.90;;;;;;5023925;28;20054;-68
2023/08/28 04:16:49;;;;;;;1.17;1.08;;;12.60;99.90;;;;;;5029600;28;20454;-68
2023/08/28 04:19:15;;;;;;;0.60;0.60;;;12.70;99.90;;;;;;5028486;28;20075;-68
2023/08/28 04:21:41;;;;;;;0.50;0.50;;;12.70;99.90;;;;;;5035039;28;20029;-68
2023/08/28 04:24:07;;;;;;;1.77;0.87;;;12.80;99.90;;;;;;5029304;28;20033;-68
2023/08/28 04:26:33;;;;;;;0.20;0.20;;;12.90;99.90;;;;;;5033352;28;20034;-68
2023/08/28 04:28:59;;;;;;;0.43;0.27;;;12.90;99.90;;;;;;5032597;28;20033;-69
2023/08/28 04:31:24;;;;;;;0.37;0.37;;;12.90;99.90;;;;;;5032514;28;20036;-68
2023/08/28 04:33:50;;;;;;;0.67;0.67;;;12.90;99.90;;;;;;5028812;28;20037;-68
2023/08/28 04:36:16;;;;;;;0.37;0.33;;;13.00;99.90;;;;;;5031362;28;20037;-68
2023/08/28 04:38:42;;;;;;;0.43;0.43;;;13.00;99.90;;;;;;5034565;28;20030;-71
2023/08/28 04:41:07;;;;;;;3.43;1.00;;;13.10;99.90;;;;;;5034861;28;20416;-68
2023/08/28 04:43:33;;;;;;;0.97;0.87;;;13.10;99.90;;;;;;5033452;28;20091;-68
2023/08/28 04:46:00;;;;;;;1.13;0.73;;;13.10;99.90;;;;;;5034487;28;20075;-69
2023/08/28 04:48:26;;;;;;;17.77;0.65;;;13.10;99.90;;;;;;5035579;28;20328;-68
2023/08/28 04:50:51;;;;;;;0.30;0.30;;;13.10;99.90;;;;;;5034549;28;20410;-68
2023/08/28 04:53:17;;;;;;;0.90;0.77;;;13.10;99.90;;;;;;5033870;28;20025;-68
2023/08/28 04:55:43;;;;;;;3.70;0.70;;;13.10;99.90;;;;;;5034459;28;20049;-68
2023/08/28 04:58:09;;;;;;;0.40;0.40;;;13.10;99.90;;;;;;5034095;28;20021;-69
2023/08/28 05:00:35;;;;;;;0.35;0.35;;;13.10;99.90;;;;;;5029236;28;20087;-68
2023/08/28 05:03:00;;;;;;;1.23;0.23;;;13.10;99.90;;;;;;5025376;28;20033;-68
2023/08/28 05:05:26;;;;;;;0.47;0.47;;;13.00;99.90;;;;;;5034978;28;20029;-68
2023/08/28 05:07:52;;;;;;;3.87;0.87;;;13.00;99.90;;;;;;5032217;28;20022;-79
2023/08/28 05:10:18;;;;;;;0.53;0.40;;;13.00;99.90;;;;;;5023690;28;20036;-68
2023/08/28 05:12:44;;;;;;;0.37;0.37;;;12.90;99.90;;;;;;5034153;28;20028;-68
2023/08/28 05:15:10;;;;;;;4.72;1.38;;;12.90;99.90;;;;;;5027970;28;20032;-68
2023/08/28 05:17:36;;;;;;;0.50;0.50;;;12.90;99.90;;;;;;5026278;28;20116;-68
2023/08/28 05:20:01;;;;;;;3.53;0.43;;;12.90;99.90;;;;;;5023901;28;20052;-69
2023/08/28 05:22:27;;;;;;;0.20;0.20;;;12.90;99.90;;;;;;5031878;28;20141;-68
2023/08/28 05:24:53;;;;;;;0.43;0.43;;;12.80;99.90;;;;;;5033305;28;20021;-68
2023/08/28 05:27:19;;;;;;;0.30;0.27;;;12.90;99.90;;;;;;5033908;28;20325;-68
2023/08/28 05:29:47;;;;;;;0.53;0.53;;;12.90;99.90;;;;;;5032692;28;20104;-68
2023/08/28 05:32:13;;;;;;;1.77;0.50;;;12.80;99.90;;;;;;5033498;28;20444;-68
2023/08/28 05:34:39;;;;;;;0.20;0.20;;;12.80;99.90;;;;;;5036117;28;20057;-68
2023/08/28 05:37:05;;;;;;;0.33;0.33;;;12.80;99.90;;;;;;5031537;28;20033;-69
2023/08/28 05:39:31;;;;;;;4.30;1.10;;;12.80;99.90;;;;;;5035469;28;20275;-68
2023/08/28 05:41:57;;;;;;;1.90;0.97;;;12.80;99.90;;;;;;5037695;28;20021;-68
2023/08/28 05:44:22;;;;;;;0.30;0.30;;;12.90;99.90;;;;;;5038180;28;20017;-68
2023/08/28 05:46:48;;;;;;;0.30;0.30;;;12.90;99.90;;;;;;5041668;28;20056;-69
2023/08/28 05:49:14;;;;;;;0.53;0.30;;;13.00;99.90;;;;;;5037273;28;20424;-68
2023/08/28 05:51:40;;;;;;;0.30;0.30;;;13.10;99.90;;;;;;5038112;28;20029;-68
2023/08/28 05:54:06;;;;;;;0.63;0.63;;;13.10;99.90;;;;;;5037410;28;20038;-68
2023/08/28 05:56:32;;;;;;;0.43;0.43;;;13.10;99.90;;;;;;5038911;28;20033;-68
2023/08/28 05:58:58;;;;;;;0.60;0.60;;;13.10;99.90;;;;;;5037212;28;20112;-72
2023/08/28 06:01:24;;;;;;;0.50;0.50;;;13.10;99.90;;;;;;5037753;28;20179;-79
2023/08/28 06:03:55;;;;;;;1.73;1.50;;;13.20;99.90;;;;;;5036528;28;20026;-68
2023/08/28 06:06:22;;;;;;;0.95;0.28;;;13.20;99.90;;;;;;5046338;28;20029;-68
2023/08/28 06:08:48;;;;;;;;;;;13.30;99.90;;;;;;5029872;28;20432;-68
2023/08/28 06:11:14;;;;;;;0.20;0.20;;;13.30;99.90;;;;;;5030211;28;19940;-69
2023/08/28 06:13:40;;;;;;;1.20;0.90;;;13.30;99.90;;;;;;5029122;28;20060;-68
2023/08/28 06:16:06;;;;;;;0.30;0.27;;;13.40;99.90;;;;;;5037018;28;20040;-80
2023/08/28 06:18:32;;;;;;;0.55;0.52;;;13.40;99.90;;;;;;5033817;28;20416;-69
2023/08/28 06:20:58;;;;;;;2.05;0.82;;;13.50;99.90;;;;;;5034707;28;20379;-68
2023/08/28 06:23:24;;;;;;;0.68;0.20;;;13.50;99.90;;;;;;5037235;28;20124;-68
2023/08/28 06:25:49;;;;;;;2.60;0.63;;;13.50;99.90;;;;;;5037881;28;20121;-68
2023/08/28 06:28:15;;;;;;;0.30;0.30;;;13.60;99.90;;;;;;5036292;28;20269;-68
2023/08/28 06:30:41;;;;;;;0.30;0.30;;;13.60;99.90;;;;;;5037389;28;20080;-69
2023/08/28 06:33:07;;;;;;;0.20;0.20;;;13.70;99.90;;;;;;5036763;28;20030;-79
2023/08/28 06:35:33;;;;;;;0.30;0.30;;;13.80;99.90;;;;;;5037384;28;20601;-68
2023/08/28 06:37:59;;;;;;;2.07;0.73;;;13.80;99.90;;;;;;5036603;28;20079;-68
2023/08/28 06:40:24;;;;;;;0.20;0.20;;;14.00;99.90;;;;;;5035791;28;20037;-69
2023/08/28 06:42:50;;;;;;;0.40;0.40;;;14.00;99.90;;;;;;5035847;28;20475;-69
2023/08/28 06:45:16;;;;;;;0.40;0.40;;;14.10;99.90;;;;;;5036492;28;20021;-68
2023/08/28 06:47:41;;;;;;;0.33;0.33;;;14.20;99.90;;;;;;5037231;28;20053;-69
2023/08/28 06:50:08;;;;;;;0.47;0.47;;;14.20;99.90;;;;;;5034901;28;20258;-68
2023/08/28 06:52:35;;;;;;;;;;;14.30;99.90;;;;;;5037087;28;20057;-68
2023/08/28 06:55:01;;;;;;;0.52;0.52;;;14.30;99.90;;;;;;5037319;28;19916;-69
2023/08/28 06:57:27;;;;;;;0.47;0.27;;;14.40;99.90;;;;;;5036870;28;20030;-69
2023/08/28 06:59:53;;;;;;;0.93;0.80;;;14.50;99.90;;;;;;5035433;28;20036;-69
2023/08/28 07:02:19;;;;;;;0.30;0.30;;;14.60;99.90;;;;;;5036184;28;20033;-69
2023/08/28 07:04:44;;;;;;;0.27;0.27;;;14.80;99.90;;;;;;5036815;28;20096;-68
2023/08/28 07:07:15;;;;;;;3.53;1.23;;;14.90;99.90;;;;;;5036961;28;20375;-69
2023/08/28 07:09:41;;;;;;;1.85;0.40;;;15.10;99.90;;;;;;5036086;28;20025;-69
2023/08/28 07:12:06;;;;;;;0.63;0.63;;;15.20;99.90;;;;;;5035978;28;20025;-69
2023/08/28 07:14:32;;;;;;;0.10;0.10;;;15.40;99.90;;;;;;5036137;28;20074;-69
2023/08/28 07:16:58;;;;;;;3.53;0.80;;;15.60;99.90;;;;;;5036686;28;20086;-69
2023/08/28 07:19:24;;;;;;;2.17;0.60;;;15.90;99.90;;;;;;5035388;28;20324;-69
2023/08/28 07:21:49;;;;;;;0.80;0.80;;;16.00;99.90;;;;;;5036334;28;20033;-69
2023/08/28 07:24:15;;;;;;;0.10;0.10;;;16.10;99.90;;;;;;5036375;28;20039;-69
2023/08/28 07:26:40;;;;;;;0.37;0.37;;;16.30;99.90;;;;;;5036039;28;20031;-70
2023/08/28 07:29:06;;;;;;;0.10;0.10;;;16.40;99.90;;;;;;5035670;28;20107;-69
2023/08/28 07:31:32;;;;;;;0.60;0.60;;;16.50;99.90;;;;;;5035967;28;20109;-69
2023/08/28 07:33:59;;;;;;;0.10;0.10;;;16.60;99.90;;;;;;5036170;28;20259;-71
2023/08/28 07:36:24;;;;;;;0.50;0.50;;;16.60;99.90;;;;;;5035973;28;20025;-69
2023/08/28 07:38:50;;;;;;;0.43;0.27;;;16.80;99.90;;;;;;5035879;28;20121;-69
2023/08/28 07:41:18;;;;;;;0.33;0.33;;;17.00;99.90;;;;;;5036294;28;20032;-69
2023/08/28 07:43:44;;;;;;;0.30;0.30;;;17.20;99.90;;;;;;5035388;28;20364;-70
2023/08/28 07:46:10;;;;;;;0.43;0.27;;;17.40;99.90;;;;;;5036161;28;20033;-70
2023/08/28 07:48:36;;;;;;;0.40;0.40;;;17.50;99.90;;;;;;5034619;28;20029;-69
2023/08/28 07:51:02;;;;;;;0.27;0.27;;;17.70;99.90;;;;;;5034830;28;20076;-70
2023/08/28 07:53:28;;;;;;;0.35;0.20;;;17.90;99.90;;;;;;5035429;28;20412;-70
2023/08/28 07:55:54;;;;;;;0.20;0.20;;;17.90;99.90;;;;;;5030635;28;20069;-69
2023/08/28 07:58:19;;;;;;;12.00;0.67;;;18.20;99.90;;;;;;5029091;28;20108;-70
2023/08/28 08:00:45;;;;;;;0.63;0.40;;;18.50;99.90;;;;;;5033753;28;20041;-70
2023/08/28 08:03:11;;;;;;;0.07;0.07;;;18.70;99.90;;;;;;5034865;28;20408;-70
2023/08/28 08:05:37;;;;;;;0.00;0.00;;;18.80;99.90;;;;;;5035310;28;20029;-70
2023/08/28 08:08:03;;;;;;;0.10;0.10;;;19.00;99.90;;;;;;5032539;28;20025;-70
2023/08/28 08:10:29;;;;;;;0.65;0.35;;;19.10;99.90;;;;;;5034439;28;20034;-69
2023/08/28 08:12:55;;;;;;;4.28;1.45;;;19.10;99.90;;;;;;5035291;28;20021;-78
2023/08/28 08:15:21;;;;;;;0.30;0.30;;;19.20;99.90;;;;;;5035632;28;20025;-78
2023/08/28 08:17:47;;;;;;;0.10;0.10;;;19.30;99.90;;;;;;5035387;28;20108;-69
2023/08/28 08:20:13;;;;;;;0.00;0.00;;;19.40;99.90;;;;;;5034407;28;20101;-70
2023/08/28 08:22:40;;;;;;;0.00;0.00;;;19.30;99.90;;;;;;5034631;28;20297;-70
2023/08/28 08:25:06;;;;;;;0.03;0.03;;;19.20;99.90;;;;;;5027391;28;20029;-70
2023/08/28 08:27:33;;;;;;;0.20;0.20;;;19.00;99.90;;;;;;5027732;28;20416;-69
2023/08/28 08:29:59;;;;;;;0.40;0.40;;;18.80;99.90;;;;;;5034688;28;20324;-69
2023/08/28 08:32:24;;;;;;;0.20;0.20;;;18.60;99.90;;;;;;5035190;28;20044;-69
2023/08/28 08:34:50;;;;;;;0.10;0.10;;;18.50;99.90;;;;;;5034656;28;20425;-69
2023/08/28 08:37:16;;;;;;;0.80;0.37;;;18.50;99.90;;;;;;5029672;28;20028;-69
2023/08/28 08:39:42;;;;;;;5.10;0.40;;;18.60;99.90;;;;;;5029235;28;20120;-69
2023/08/28 08:42:08;;;;;;;0.17;0.17;;;18.90;99.90;;;;;;5035187;28;20041;-71
2023/08/28 08:44:35;;;;;;;0.10;0.10;;;19.00;99.90;;;;;;5035058;28;20393;-70
2023/08/28 08:47:04;;;;;;;0.30;0.30;;;19.10;99.90;;;;;;5032391;28;20021;-77
2023/08/28 08:49:34;;;;;;;0.10;0.10;;;19.00;99.90;;;;;;5035258;28;20072;-69
2023/08/28 08:52:07;;;;;;;1.13;0.28;;;18.90;99.90;;;;;;5033469;28;20404;-69
2023/08/28 08:54:42;;;;;;;1.27;0.35;;;18.90;99.90;;;;;;5027602;28;20452;-69
2023/08/28 08:57:23;;;;;;;0.10;0.10;;;19.00;99.90;;;;;;5034787;28;20075;-69
2023/08/28 08:59:51;;;;;;;0.00;0.00;;;19.10;99.90;;;;;;5033463;28;22189;-69
2023/08/28 09:02:17;;;;;;;0.10;0.10;;;19.20;99.90;;;;;;5032054;28;20029;-69
2023/08/28 09:04:43;;;;;;;0.00;0.00;;;19.30;99.90;;;;;;5032060;28;20036;-70
2023/08/28 09:07:10;;;;;;;0.00;0.00;;;19.60;99.90;;;;;;5035239;28;20037;-69
2023/08/28 09:09:36;;;;;;;0.28;0.28;;;19.80;99.90;;;;;;5033901;28;20025;-69
2023/08/28 09:12:02;;;;;;;0.00;0.00;;;19.80;99.90;;;;;;5030364;28;20099;-70
2023/08/28 09:14:31;;;;;;;2.90;0.93;;;19.70;99.90;;;;;;5032206;28;20072;-70
2023/08/28 09:16:56;;;;;;;0.65;0.25;;;19.70;99.90;;;;;;5031209;28;20041;-70
2023/08/28 09:19:23;;;;;;;0.00;0.00;;;19.70;99.90;;;;;;5032792;28;20064;-69
2023/08/28 09:21:49;;;;;;;0.55;0.30;;;19.80;99.90;;;;;;5033484;28;20267;-69
2023/08/28 09:24:22;;;;;;;0.30;0.20;;;19.80;99.90;;;;;;5032022;28;20081;-69
2023/08/28 09:26:53;;;;;;;0.25;0.25;;;19.70;99.90;;;;;;5033441;28;20029;-70
2023/08/28 09:29:23;;;;;;;1.20;0.22;;;19.80;99.90;;;;;;5033251;28;20436;-71
2023/08/28 09:31:51;;;;;;;0.25;0.25;;;19.90;99.90;;;;;;5031135;28;20029;-69
2023/08/28 09:34:18;;;;;;;2.83;1.17;;;20.20;99.90;;;;;;5029185;28;20116;-69
2023/08/28 09:36:44;;;;;;;1.23;0.30;;;20.30;99.90;;;;;;5028143;28;20026;-72
2023/08/28 09:39:12;;;;;;;0.00;0.00;;;20.30;99.90;;;;;;5032130;28;20038;-69
2023/08/28 09:41:48;;;;;;;5.88;1.23;;;20.30;99.90;;;;;;5032403;28;20269;-69
2023/08/28 09:44:15;;;;;;;;;;;20.30;99.90;;;;;;5033493;28;20112;-76
2023/08/28 09:46:43;;;;;;;0.15;0.15;;;20.20;99.90;;;;;;5032862;28;19909;-69
2023/08/28 09:49:10;;;;;;;0.10;0.10;;;20.30;99.90;;;;;;5030269;28;20413;-70
2023/08/28 09:51:39;;;;;;;;;;;20.30;99.90;;;;;;5032057;28;20092;-69
2023/08/28 09:54:05;;;;;;;1.08;0.55;;;20.30;99.90;;;;;;5021347;28;19967;-70
2023/08/28 09:56:31;;;;;;;0.10;0.10;;;20.30;99.90;;;;;;5022087;28;20102;-69
2023/08/28 09:58:58;;;;;;;0.00;0.00;;;20.40;99.90;;;;;;5032018;28;20045;-77
2023/08/28 10:01:29;;;;;;;0.13;0.13;;;20.40;99.90;;;;;;5032212;28;20038;-69
2023/08/28 10:03:58;;;;;;;0.10;0.10;;;20.40;99.90;;;;;;5032634;28;20486;-69
2023/08/28 10:06:32;;;;;;;0.47;0.45;;;20.40;99.90;;;;;;5019417;28;20494;-69
2023/08/28 10:09:00;;;;;;;0.00;0.00;;;20.20;99.90;;;;;;5015091;28;20026;-77
2023/08/28 10:11:54;;;;;;;0.08;0.08;;;20.00;99.90;;;;;;5031875;28;20022;-77
2023/08/28 10:14:22;;;;;;;0.00;0.00;;;19.80;99.90;;;;;;5032376;28;20061;-70
2023/08/28 10:16:57;;;;;;;0.05;0.05;;;19.60;99.90;;;;;;5026655;28;20061;-77
2023/08/28 10:19:37;;;;;;;0.15;0.15;;;19.40;99.90;;;;;;5031648;28;20013;-69
2023/08/28 10:22:07;;;;;;;0.00;0.00;;;19.30;99.90;;;;;;5031022;28;20037;-77
2023/08/28 10:24:36;;;;;;;0.00;0.00;;;19.20;99.90;;;;;;5032114;28;20025;-69
2023/08/28 10:27:03;;;;;;;0.00;0.00;;;19.30;99.90;;;;;;5035718;28;20027;-69
2023/08/28 10:29:30;;;;;;;0.00;0.00;;;19.50;99.90;;;;;;5035859;28;20049;-69
2023/08/28 10:31:56;;;;;;;0.00;0.00;;;19.80;99.90;;;;;;5035595;28;20024;-80
2023/08/28 10:34:24;;;;;;;0.85;0.63;;;20.00;99.90;;;;;;5035449;28;20069;-77
2023/08/28 10:36:51;;;;;;;2.05;0.30;;;20.20;99.90;;;;;;5035778;28;20068;-77
2023/08/28 10:39:17;;;;;;;2.72;0.70;;;20.20;99.90;;;;;;5036035;28;20074;-69
2023/08/28 10:41:46;;;;;;;0.10;0.10;;;20.00;99.90;;;;;;5036465;28;20028;-69
2023/08/28 10:44:12;;;;;;;0.10;0.08;;;19.80;99.90;;;;;;5036020;28;20030;-70
2023/08/28 10:46:38;;;;;;;;;;;19.70;99.90;;;;;;5039089;28;20043;-69
2023/08/28 10:49:05;;;;;;;0.00;0.00;;;19.50;99.90;;;;;;5034389;28;19913;-69
2023/08/28 10:51:32;;;;;;;0.00;0.00;;;19.50;99.90;;;;;;5035170;28;20336;-69
2023/08/28 10:54:07;;;;;;;0.08;0.08;;;19.40;99.90;;;;;;5034145;28;20025;-71
2023/08/28 10:56:34;;;;;;;0.22;0.15;;;19.60;99.90;;;;;;5026600;28;20037;-69
2023/08/28 10:59:19;;;;;;;0.00;0.00;;;19.90;99.90;;;;;;5036038;28;20029;-69
2023/08/28 11:01:50;;;;;;;0.00;0.00;;;20.10;99.90;;;;;;5036796;28;20029;-69
2023/08/28 11:04:16;;;;;;;0.10;0.10;;;20.10;99.90;;;;;;5036767;28;20070;-75
2023/08/28 11:06:44;;;;;;;0.00;0.00;;;20.30;99.90;;;;;;5024873;28;20092;-69
2023/08/28 11:09:28;;;;;;;0.00;0.00;;;20.40;99.90;;;;;;5032187;28;20087;-69
2023/08/28 11:12:00;;;;;;;0.03;0.03;;;20.40;99.90;;;;;;5036723;28;20017;-78
2023/08/28 11:14:34;;;;;;;0.00;0.00;;;20.30;99.90;;;;;;5036254;28;20029;-69
2023/08/28 11:17:09;;;;;;;0.00;0.00;;;20.10;99.90;;;;;;5036311;28;20328;-69
2023/08/28 11:19:53;;;;;;;0.80;0.40;;;19.90;99.90;;;;;;5033324;28;20386;-69
2023/08/28 11:22:34;;;;;;;0.47;0.10;;;19.80;99.90;;;;;;5036080;28;20452;-69
2023/08/28 11:25:04;;;;;;;0.17;0.17;;;19.70;99.90;;;;;;5035778;28;20076;-69
2023/08/28 11:27:45;;;;;;;0.10;0.08;;;19.80;99.90;;;;;;5036302;28;20416;-69
2023/08/28 11:30:12;;;;;;;0.13;0.13;;;19.90;99.90;;;;;;5024937;28;20143;-69
2023/08/28 11:32:40;;;;;;;0.10;0.10;;;20.10;99.90;;;;;;5036147;28;20041;-69
2023/08/28 11:35:13;;;;;;;2.75;0.47;;;20.20;99.90;;;;;;5035928;28;20033;-72
2023/08/28 11:37:40;;;;;;;0.00;0.00;;;20.40;99.90;;;;;;5036079;28;20029;-70
2023/08/28 11:40:08;;;;;;;0.00;0.00;;;20.50;99.90;;;;;;5035928;28;20328;-70
2023/08/28 11:42:38;;;;;;;0.43;0.32;;;20.60;99.90;;;;;;5034463;28;20377;-69
2023/08/28 11:45:05;;;;;;;0.10;0.10;;;20.70;99.90;;;;;;5035648;28;20049;-70
2023/08/28 11:47:32;;;;;;;0.00;0.00;;;20.70;99.90;;;;;;5034816;28;20035;-69
2023/08/28 11:49:59;;;;;;;0.15;0.15;;;20.70;99.90;;;;;;5035041;28;20450;-74
2023/08/28 11:52:25;;;;;;;0.00;0.00;;;20.80;99.90;;;;;;5035462;28;20025;-78
2023/08/28 11:54:58;;;;;;;0.10;0.10;;;20.90;99.90;;;;;;5035323;28;20065;-69
2023/08/28 11:57:25;;;;;;;0.00;0.00;;;20.90;99.90;;;;;;5035237;28;20025;-69
2023/08/28 11:59:52;;;;;;;0.00;0.00;;;20.90;99.90;;;;;;5034971;28;20329;-78
2023/08/28 12:02:19;;;;;;;0.08;0.08;;;21.00;99.90;;;;;;5035043;28;20049;-69
2023/08/28 12:04:50;;;;;;;0.00;0.00;;;21.00;99.90;;;;;;5036049;28;20033;-69
2023/08/28 12:07:25;;;;;;;0.00;0.00;;;20.80;99.90;;;;;;5034157;28;20302;-68
2023/08/28 12:09:52;;;;;;;0.00;0.00;;;20.60;99.90;;;;;;5035867;28;20025;-76
2023/08/28 12:12:19;;;;;;;0.00;0.00;;;20.30;99.90;;;;;;5035600;28;20061;-69
2023/08/28 12:14:46;;;;;;;0.03;0.03;;;20.10;99.90;;;;;;5035223;28;20014;-68
2023/08/28 12:17:17;;;;;;;0.22;0.17;;;19.90;99.90;;;;;;5035374;28;20026;-68
2023/08/28 12:19:43;;;;;;;0.00;0.00;;;19.80;99.90;;;;;;5034464;28;20033;-69
2023/08/28 12:22:11;;;;;;;0.47;0.35;;;19.70;99.90;;;;;;5032883;28;20046;-68
2023/08/28 12:24:44;;;;;;;0.28;0.28;;;19.60;99.90;;;;;;5034175;28;20041;-69
2023/08/28 12:27:12;;;;;;;0.55;0.20;;;19.70;99.90;;;;;;5035242;28;20091;-76
2023/08/28 12:29:41;;;;;;;0.00;0.00;;;19.90;99.90;;;;;;5034900;28;20438;-69
2023/08/28 12:32:09;;;;;;;0.00;0.00;;;20.10;99.90;;;;;;5033898;28;20029;-69
2023/08/28 12:34:37;;;;;;;0.00;0.00;;;20.20;99.90;;;;;;5028957;28;20025;-68
2023/08/28 12:37:11;;;;;;;0.00;0.00;;;20.40;99.90;;;;;;5035086;28;20024;-69
2023/08/28 12:39:46;;;;;;;0.00;0.00;;;20.50;99.90;;;;;;5035256;28;20029;-68
2023/08/28 12:42:13;;;;;;;0.10;0.10;;;20.60;99.90;;;;;;5035186;28;20025;-69
2023/08/28 12:44:42;;;;;;;0.00;0.00;;;20.60;99.90;;;;;;5034134;28;20025;-68
2023/08/28 12:47:09;;;;;;;0.13;0.13;;;20.70;99.90;;;;;;5034430;28;20232;-69
2023/08/28 12:49:34;;;;;;;0.00;0.00;;;20.60;99.90;;;;;;5033027;28;20018;-69